AirNav   Air Wisconsin pilot careers
 
 315 users online  

9M8 Sheridan Municipal Airport
Sheridan, Arkansas, USA

GOING TO SHERIDAN?


FAA INFORMATION EFFECTIVE 13 SEPTEMBER 2018

Location

FAA Identifier: 9M8
Lat/Long: 34-19-39.1000N / 092-21-04.8000W
34-19.651667N / 092-21.080000W
34.3275278 / -92.3513333
(estimated)
Elevation: 236 ft. / 71.9 m (surveyed)
Variation: 00E (2020)
From city: 3 miles E of SHERIDAN, AR
Time zone: UTC -5 (UTC -6 during Standard Time)
Zip code: 72150

Airport Operations

Airport use: Open to the public
Activation date: 05/1982
Control tower: no
ARTCC: MEMPHIS CENTER
FSS: JONESBORO FLIGHT SERVICE STATION
NOTAMs facility: JBR (NOTAM-D service available)
Attendance: UNATNDD
Wind indicator: yes
Segmented circle: no
Lights: ACTVT MIRL RY 01/19 AND PAPI RYS 01 & 19 - CTAF.
Beacon: white-green (lighted land airport)
Operates sunset to sunrise.

Airport Communications

CTAF/UNICOM: 122.8
LITTLE ROCK APPROACH: 135.4
LITTLE ROCK DEPARTURE: 135.4
WX AWOS-2 at SUZ (17 nm N): 132.125 (501-847-3883)
  • APCH/DEP SVC PRVVD BY LITTLE ROCK APCH (LIT) ON 135.4/353.6.

Nearby radio navigation aids

VOR radial/distance  VOR name  Freq  Var
PBFr279/21.6PINE BLUFF VOR/DME116.0004E
LITr197/22.6LITTLE ROCK VORTAC113.9005E
HOTr100/37.7HOT SPRINGS VOR/DME110.0004E

Airport Services

Fuel available: 100LL
SELF SERVICE FUEL AVBL 24 HRS WITH CREDIT CARD.
Parking: tiedowns
Airframe service: MINOR
Powerplant service: MINOR

Runway Information

Runway 1/19

Dimensions: 3202 x 75 ft. / 976 x 23 m
Surface: asphalt, in good condition
Weight bearing capacity: 
Single wheel: 12.5
Runway edge lights: medium intensity
RUNWAY 1  RUNWAY 19
Latitude: 34-19.393610N34-19.909262N
Longitude: 092-21.147758W092-21.011013W
Elevation: 228.5 ft.236.0 ft.
Traffic pattern: leftleft
Runway heading: 012192
Markings: nonprecision, in good conditionnonprecision, in good condition
Visual slope indicator: 2-light PAPI on left (3.75 degrees glide path)
RWY 01 PAPI UNUSBL BYD 6 DEG LEFT OF CNTRLN.
2-light PAPI on left (3.25 degrees glide path)
Touchdown point: yes, no lightsyes, no lights
Obstructions: 60 ft. trees, 1400 ft. from runway, 20:1 slope to clear38 ft. trees, 1100 ft. from runway, 475 ft. left of centerline, 23:1 slope to clear

Airport Ownership and Management from official FAA records

Ownership: Publicly-owned
Owner: SHERIDAN & GRANT COUNTY
PO BOX 44
SHERIDAN, AR 72150
Phone 870-942-3921
Manager: DON HAWKINS
233 AIRPORT ROAD
SHERIDAN, AR 72150
Phone (870) 917-8053

Airport Operational Statistics

Aircraft based on the field: 22
Single engine airplanes: 21
Multi engine airplanes: 1
    
Aircraft operations: avg 24/day *
57% transient general aviation
39% local general aviation
5% military
* for 12-month period ending 31 July 2015

Instrument Procedures

NOTE: All procedures below are presented as PDF files. If you need a reader for these files, you should download the free Adobe Reader.

NOT FOR NAVIGATION. Please procure official charts for flight.
FAA instrument procedures published for use from 13 September 2018 at 0901Z to 11 October 2018 at 0900Z.

 
IAPs - Instrument Approach Procedures
RNAV (GPS) RWY 01   download (183KB)
RNAV (GPS) RWY 19   download (193KB)
NOTE: Special Take-Off Minimums/Departure Procedures apply   download (176KB)

Other nearby airports with instrument procedures:

KSUZ - Saline County Regional Airport (17 nm N)
M78 - Malvern Municipal Airport (20 nm W)
KPBF - Pine Bluff Regional Airport Grider Field (23 nm SE)
KLIT - Bill and Hillary Clinton National Airport/Adams Field (25 nm N)
KORK - North Little Rock Municipal Airport (31 nm N)
 
Loc | Ops | Rwys | IFR | FBO | Links
Com | Nav | Svcs | Stats | Notes


 
Area around 9M8 (Sheridan Municipal Airport)
 
Road maps at: MapQuest Bing Google
 
Aerial photo
WARNING: Photo may not be current or correct
Aerial photo of 9M8 (Sheridan Municipal Airport)
Photo courtesy of the Arkansas Department of Aeronautics
Taken in the Spring of 2007

Do you have a better or more recent aerial photo of Sheridan Municipal Airport that you would like to share? If so, please send us your photo.

 
Sectional chart

 
Airport distance calculator
Flying to Sheridan Municipal Airport? Find the distance to fly.

From to 9M8

Sunrise and sunset
Times for 24-Sep-2018
 Local
(UTC-5)
 Zulu
(UTC)
Morning civil twilight06:3511:35
Sunrise07:0012:00
Sunset19:0300:03
Evening civil twilight19:2800:28

Current date and time
Zulu (UTC)  24-Sep-2018 09:25:06
Local (UTC-5)  24-Sep-2018 04:25:06
 
METAR
KPBF 
22nm SE 
240853Z AUTO 03003KT 1/2SM FG VV002 20/19 A2993 RMK AO2 SLP132 T02000194 57004
KLIT 
25nm N 
240853Z 08006KT 1/2SM FG VV002 18/18 A2993 RMK AO2 SLP137 T01830183 56010 RVRNO
KLRF 
37nm N 
240856Z AUTO 06004KT 1 1/8SM BR OVC002 19/19 A2992 RMK AO2 VIS 1 1/8V1 3/4 SLP133 T01900190 57009 $
KADF 
38nm W 
240856Z AUTO 00000KT 3SM -RA BR OVC003 19/19 A2991 RMK AO2 RAE0759B47 SLP132 P0001 60001 T01940194 56008 TSNO
KHOT 
38nm W 
240853Z AUTO 06003KT 1 1/4SM BR OVC002 19/19 A2992 RMK AO2 SLP128 T01890189 56008
KSGT 
42nm NE 
240856Z AUTO 05003KT 1/4SM FG OVC002 19/19 A2994 RMK AO2 SLP136 60000 T01940194 55004 RVRNO
KCXW 
43nm N 
240855Z AUTO 00000KT 10SM OVC005 19/19 A2992 RMK A01
TAF
KPBF 
22nm SE 
240729Z 2407/2506 02004KT 2SM BR OVC003 TEMPO 2407/2411 1/2SM -RA FG VV001 FM241500 17005KT 4SM BR VCSH OVC005 FM242100 14005KT P6SM SCT010 BKN025 FM250100 12003KT 5SM BR OVC035
KLIT 
25nm N 
240540Z 2406/2506 05006KT P6SM OVC004 TEMPO 2409/2413 2SM -SHRA BR VV001 FM241500 11005KT 5SM BR VCSH OVC005 FM242100 13005KT P6SM SCT010 BKN025 FM250100 12003KT 5SM BR OVC035
NOTAMs
Click for the latest NOTAMs
NOTAMs are issued by the DoD/FAA and will open in a separate window not controlled by AirNav.

 

 
 

FBO, Fuel Providers, and Aircraft Ground Support

  
 Business Name 
 
 Contact 
 
 Services / Description 
 
Fuel Prices
 
Comments
  
Sheridan-Grant County Airport Commission 870-942-7733
no information available

If you are affiliated with Sheridan-Grant County Airport Commission and would like to show here your services, contact info, web link, logo, and more, click here
100LL
SS $4.20 
 Updated 20-Jul-2018
 
   write
SS=Self service
Update Fuel Prices
 

Would you like to see your business listed on this page?

 If your business provides an interesting product or service to pilots, flight crews, aircraft, or users of the Sheridan Municipal Airport, you should consider listing it here.  To start the listing process, click on the button below
 
Add a business
 

Other Pages about Sheridan Municipal Airport

Update a link
 
Copyright © AirNav, LLC. All rights reserved. Privacy Policy  Contact